createdAt,value
2018-06-11T00:02:54.524Z,99.90
2018-06-11T00:05:25.055Z,99.90
2018-06-11T00:07:55.580Z,99.90
2018-06-11T00:10:26.269Z,99.90
2018-06-11T00:12:56.889Z,99.90
2018-06-11T00:15:27.576Z,99.90
2018-06-11T00:20:28.357Z,99.90
2018-06-11T00:22:59.143Z,99.90
2018-06-11T00:25:29.792Z,99.90
2018-06-11T00:28:00.289Z,99.90
2018-06-11T00:30:31.013Z,99.90
2018-06-11T00:33:01.538Z,99.90
2018-06-11T00:35:32.255Z,99.90
2018-06-11T00:38:02.844Z,99.90
2018-06-11T00:40:33.587Z,99.90
2018-06-11T00:45:34.624Z,99.90
2018-06-11T00:48:05.178Z,99.90
2018-06-11T00:50:35.816Z,99.90
2018-06-11T00:53:06.537Z,99.90
2018-06-11T00:55:53.861Z,99.90
2018-06-11T01:00:54.500Z,99.90
2018-06-11T01:03:25.173Z,99.90
2018-06-11T01:05:55.711Z,99.90
2018-06-11T01:08:26.327Z,99.90
2018-06-11T01:10:56.840Z,99.90
2018-06-11T01:13:27.691Z,99.90
2018-06-11T01:15:58.479Z,99.90
2018-06-11T01:18:30.108Z,99.90
2018-06-11T01:21:01.266Z,99.90
2018-06-11T01:23:32.067Z,99.90
2018-06-11T01:26:02.638Z,99.90
2018-06-11T01:28:33.506Z,99.90
2018-06-11T01:31:04.196Z,99.90
2018-06-11T01:33:35.530Z,99.90
2018-06-11T01:36:06.449Z,99.90
2018-06-11T01:38:37.164Z,99.90
2018-06-11T01:41:07.835Z,99.90
2018-06-11T01:43:38.613Z,99.90
2018-06-11T01:46:09.284Z,99.90
2018-06-11T01:48:39.949Z,99.90
2018-06-11T01:51:10.537Z,99.90
2018-06-11T01:53:41.262Z,99.90
2018-06-11T01:56:12.316Z,99.90
2018-06-11T01:58:43.010Z,99.90
2018-06-11T02:01:14.605Z,99.90
2018-06-11T02:03:45.224Z,99.90
2018-06-11T02:06:19.473Z,99.90
2018-06-11T02:08:50.175Z,99.90
2018-06-11T02:11:20.803Z,99.90
2018-06-11T02:16:21.661Z,99.90
2018-06-11T02:21:22.688Z,99.90
2018-06-11T02:23:53.476Z,99.90
2018-06-11T02:26:24.105Z,99.90
2018-06-11T02:28:54.822Z,99.90
2018-06-11T02:31:25.562Z,99.90
2018-06-11T02:33:56.188Z,99.90
2018-06-11T02:36:26.705Z,99.90
2018-06-11T02:38:57.452Z,99.90
2018-06-11T02:41:28.161Z,99.90
2018-06-11T02:43:58.631Z,99.90
2018-06-11T02:46:29.379Z,99.90
2018-06-11T02:49:00.594Z,99.90
2018-06-11T02:51:31.129Z,99.90
2018-06-11T02:54:02.317Z,99.90
2018-06-11T02:56:32.998Z,99.90
2018-06-11T02:59:03.632Z,99.90
2018-06-11T03:01:34.241Z,99.90
2018-06-11T03:04:04.785Z,99.90
2018-06-11T03:06:35.529Z,99.90
2018-06-11T03:09:08.016Z,99.90
2018-06-11T03:11:38.621Z,99.90
2018-06-11T03:14:09.132Z,99.90
2018-06-11T03:16:39.816Z,99.90
2018-06-11T03:19:10.549Z,99.90
2018-06-11T03:21:41.645Z,99.90
2018-06-11T03:24:13.779Z,99.90
2018-06-11T03:26:44.602Z,99.90
2018-06-11T03:29:15.343Z,99.90
2018-06-11T03:31:46.045Z,99.90
2018-06-11T03:34:16.995Z,99.90
2018-06-11T03:36:47.590Z,99.90
2018-06-11T03:39:18.337Z,99.90
2018-06-11T03:41:48.959Z,99.90
2018-06-11T03:44:19.526Z,99.90
2018-06-11T03:46:50.123Z,99.90
2018-06-11T03:49:20.809Z,99.90
2018-06-11T03:51:51.341Z,99.90
2018-06-11T03:54:22.068Z,99.90
2018-06-11T03:56:53.109Z,99.90
2018-06-11T03:59:23.892Z,99.90
2018-06-11T04:01:54.633Z,99.90
2018-06-11T04:04:25.304Z,99.90
2018-06-11T04:06:55.854Z,99.90
2018-06-11T04:09:26.536Z,99.90
2018-06-11T04:11:57.149Z,99.90
2018-06-11T04:14:27.697Z,99.90
2018-06-11T04:16:58.640Z,99.90
2018-06-11T04:19:29.914Z,99.90
2018-06-11T04:22:00.590Z,99.90
2018-06-11T04:24:31.405Z,99.90
2018-06-11T04:27:02.095Z,99.90
2018-06-11T04:29:33.838Z,99.90
2018-06-11T04:32:04.530Z,99.90
2018-06-11T04:34:35.372Z,99.90
2018-06-11T04:37:06.475Z,99.90
2018-06-11T04:39:37.306Z,99.90
2018-06-11T04:42:08.149Z,99.90
2018-06-11T04:44:38.714Z,99.90
2018-06-11T04:47:09.406Z,99.90
2018-06-11T04:49:40.123Z,99.90
2018-06-11T04:52:10.843Z,99.90
2018-06-11T04:54:41.497Z,99.90
2018-06-11T04:57:18.570Z,99.90
2018-06-11T04:59:49.202Z,99.90
2018-06-11T05:02:19.841Z,99.90
2018-06-11T05:04:50.515Z,99.90
2018-06-11T05:07:21.074Z,99.90
2018-06-11T05:09:51.582Z,99.90
2018-06-11T05:12:22.249Z,99.90
2018-06-11T05:14:52.843Z,99.90
2018-06-11T05:17:23.508Z,99.90
2018-06-11T05:19:53.998Z,99.90
2018-06-11T05:22:24.682Z,99.90
2018-06-11T05:27:25.437Z,99.00
2018-06-11T05:29:56.040Z,95.00
2018-06-11T05:32:26.704Z,91.80
2018-06-11T05:34:57.296Z,89.90
2018-06-11T05:37:27.842Z,86.90
2018-06-11T05:39:58.404Z,80.70
2018-06-11T05:42:28.998Z,74.00
2018-06-11T05:44:59.642Z,74.40
2018-06-11T05:47:30.358Z,69.40
2018-06-11T05:50:01.033Z,65.90
2018-06-11T05:52:31.568Z,65.50
2018-06-11T05:55:02.168Z,67.00
2018-06-11T05:57:32.986Z,58.90
2018-06-11T06:00:03.676Z,59.60
2018-06-11T06:02:34.273Z,62.60
2018-06-11T06:05:05.088Z,64.60
2018-06-11T06:07:35.705Z,69.90
2018-06-11T06:10:06.387Z,69.10
2018-06-11T06:12:36.999Z,71.70
2018-06-11T06:15:07.866Z,80.10
2018-06-11T06:17:39.253Z,81.30
2018-06-11T06:20:09.880Z,79.70
2018-06-11T06:22:40.508Z,82.20
2018-06-11T06:25:11.196Z,83.70
2018-06-11T06:27:41.737Z,83.10
2018-06-11T06:30:12.345Z,81.10
2018-06-11T06:32:43.078Z,77.50
2018-06-11T06:35:13.790Z,77.30
2018-06-11T06:37:44.385Z,74.70
2018-06-11T06:40:15.186Z,70.30
2018-06-11T06:42:45.698Z,66.60
2018-06-11T06:45:16.347Z,64.70
2018-06-11T06:47:47.113Z,58.90
2018-06-11T06:50:17.916Z,59.60
2018-06-11T06:52:48.760Z,61.20
2018-06-11T06:55:19.270Z,62.60
2018-06-11T06:57:49.945Z,61.10
2018-06-11T07:00:20.608Z,59.00
2018-06-11T07:02:51.104Z,57.80
2018-06-11T07:05:21.859Z,53.40
2018-06-11T07:07:52.428Z,51.70
2018-06-11T07:10:23.173Z,49.00
2018-06-11T07:12:54.134Z,48.20
2018-06-11T07:15:24.844Z,48.20
2018-06-11T07:17:55.346Z,46.80
2018-06-11T07:20:26.019Z,47.60
2018-06-11T07:22:56.736Z,48.50
2018-06-11T07:25:27.254Z,51.00
2018-06-11T07:27:57.978Z,50.80
2018-06-11T07:30:28.589Z,54.60
2018-06-11T07:32:59.136Z,54.80
2018-06-11T07:35:30.046Z,57.30
2018-06-11T07:38:00.734Z,59.00
2018-06-11T07:40:31.351Z,58.50
2018-06-11T07:43:01.975Z,60.00
2018-06-11T07:45:32.614Z,62.20
2018-06-11T07:48:03.115Z,64.50
2018-06-11T07:50:33.670Z,65.40
2018-06-11T07:53:04.072Z,67.80
2018-06-11T07:55:34.668Z,70.90
2018-06-11T07:58:05.417Z,72.70
2018-06-11T08:00:36.076Z,72.50
2018-06-11T08:03:06.708Z,74.10
2018-06-11T08:05:37.287Z,75.40
2018-06-11T08:08:07.966Z,76.50
2018-06-11T08:10:38.679Z,77.50
2018-06-11T08:13:09.361Z,77.30
2018-06-11T08:15:39.931Z,76.20
2018-06-11T08:18:10.559Z,78.30
2018-06-11T08:20:42.406Z,79.00
2018-06-11T08:23:13.261Z,80.60
2018-06-11T08:25:43.868Z,82.40
2018-06-11T08:28:14.410Z,82.00
2018-06-11T08:30:44.880Z,83.20
2018-06-11T08:33:15.365Z,85.60
2018-06-11T08:35:46.153Z,85.90
2018-06-11T08:38:16.763Z,84.20
2018-06-11T08:40:47.383Z,86.20
2018-06-11T08:43:18.633Z,86.10
2018-06-11T08:45:49.157Z,88.70
2018-06-11T08:48:19.766Z,90.00
2018-06-11T08:50:50.605Z,88.60
2018-06-11T08:53:21.159Z,88.30
2018-06-11T08:55:51.865Z,90.20
2018-06-11T08:58:22.358Z,90.80
2018-06-11T09:00:53.468Z,90.90
2018-06-11T09:03:24.262Z,90.00
2018-06-11T09:05:54.872Z,89.90
2018-06-11T09:08:25.559Z,89.80
2018-06-11T09:10:56.365Z,90.20
2018-06-11T09:13:26.968Z,88.90
2018-06-11T09:18:27.899Z,88.20
2018-06-11T09:20:58.583Z,86.50
2018-06-11T09:23:29.135Z,85.10
2018-06-11T09:26:00.371Z,88.30
2018-06-11T09:28:31.132Z,88.00
2018-06-11T09:31:01.938Z,88.80
2018-06-11T09:33:32.829Z,87.90
2018-06-11T09:36:03.335Z,86.20
2018-06-11T09:38:33.949Z,79.40
2018-06-11T09:41:04.671Z,72.20
2018-06-11T09:43:35.285Z,66.80
2018-06-11T09:46:05.916Z,62.60
2018-06-11T09:48:36.372Z,59.80
2018-06-11T09:51:07.187Z,55.90
2018-06-11T09:56:08.133Z,56.00
2018-06-11T09:58:39.013Z,56.80
2018-06-11T10:01:09.544Z,57.40
2018-06-11T10:03:40.417Z,56.70
2018-06-11T10:06:10.977Z,54.30
2018-06-11T10:08:41.724Z,54.60
2018-06-11T10:11:15.374Z,54.20
2018-06-11T10:13:46.040Z,54.30
2018-06-11T10:16:16.698Z,55.80
2018-06-11T10:18:47.497Z,57.80
2018-06-11T10:21:18.412Z,59.20
2018-06-11T10:23:49.197Z,57.80
2018-06-11T10:26:19.776Z,58.10
2018-06-11T10:28:50.548Z,57.00
2018-06-11T10:31:21.124Z,53.60
2018-06-11T10:33:51.942Z,52.70
2018-06-11T10:36:22.501Z,51.00
2018-06-11T10:38:53.185Z,50.70
2018-06-11T10:41:23.812Z,51.80
2018-06-11T10:43:55.167Z,53.90
2018-06-11T10:46:25.857Z,52.90
2018-06-11T10:48:56.413Z,53.80
2018-06-11T10:51:26.968Z,53.00
2018-06-11T10:53:57.453Z,55.00
2018-06-11T10:56:28.065Z,57.50
2018-06-11T10:58:58.656Z,58.40
2018-06-11T11:01:29.120Z,57.10
2018-06-11T11:03:59.795Z,56.70
2018-06-11T11:06:30.384Z,55.90
2018-06-11T11:09:01.099Z,55.90
2018-06-11T11:11:31.586Z,55.80
2018-06-11T11:14:02.448Z,56.30
2018-06-11T11:16:33.083Z,60.20
2018-06-11T11:19:03.742Z,61.40
2018-06-11T11:21:34.885Z,60.00
2018-06-11T11:24:11.878Z,61.20
2018-06-11T11:26:42.531Z,60.80
2018-06-11T11:29:13.224Z,61.90
2018-06-11T11:31:43.904Z,62.60
2018-06-11T11:34:14.483Z,63.80
2018-06-11T11:36:45.198Z,62.90
2018-06-11T11:39:15.865Z,63.10
2018-06-11T11:41:46.381Z,61.30
2018-06-11T11:44:17.593Z,65.00
2018-06-11T11:46:48.437Z,62.90
2018-06-11T11:49:18.955Z,64.20
2018-06-11T11:51:50.357Z,64.30
2018-06-11T11:54:21.604Z,63.00
2018-06-11T11:56:52.096Z,61.20
2018-06-11T11:59:22.810Z,61.50
2018-06-11T12:01:53.604Z,63.20
2018-06-11T12:04:24.370Z,64.30
2018-06-11T12:06:54.992Z,63.70
2018-06-11T12:09:25.723Z,64.10
2018-06-11T12:11:56.268Z,65.70
2018-06-11T12:14:26.882Z,67.40
2018-06-11T12:16:57.496Z,67.60
2018-06-11T12:19:28.173Z,66.70
2018-06-11T12:21:59.195Z,68.50
2018-06-11T12:24:29.967Z,70.00
2018-06-11T12:27:00.500Z,73.20
2018-06-11T12:29:31.321Z,73.70
2018-06-11T12:32:01.844Z,75.80
2018-06-11T12:34:32.515Z,77.90
2018-06-11T12:37:03.233Z,78.90
2018-06-11T12:39:33.845Z,79.70
2018-06-11T12:42:04.495Z,82.50
2018-06-11T12:44:35.060Z,84.00
2018-06-11T12:47:05.768Z,86.40
2018-06-11T12:49:37.056Z,86.30
2018-06-11T12:52:07.839Z,88.20
2018-06-11T12:54:38.518Z,89.30
2018-06-11T12:57:09.342Z,91.80
2018-06-11T12:59:40.227Z,92.90
2018-06-11T13:04:41.079Z,91.80
2018-06-11T13:07:11.864Z,93.40
2018-06-11T13:09:42.823Z,93.00
2018-06-11T13:12:13.790Z,92.80
2018-06-11T13:17:14.717Z,93.60
2018-06-11T13:19:45.402Z,93.70
2018-06-11T13:22:16.377Z,93.90
2018-06-11T13:24:47.162Z,93.80
2018-06-11T13:27:17.715Z,95.10
2018-06-11T13:29:52.811Z,94.60
2018-06-11T13:32:23.674Z,95.30
2018-06-11T13:34:54.185Z,95.60
2018-06-11T13:39:55.640Z,96.30
2018-06-11T13:42:26.387Z,96.30
2018-06-11T13:44:57.149Z,96.70
2018-06-11T13:47:27.849Z,96.50
2018-06-11T13:52:28.740Z,97.30
2018-06-11T13:54:59.350Z,97.00
2018-06-11T14:02:30.318Z,97.40
2018-06-11T14:05:01.002Z,97.70
2018-06-11T14:07:31.685Z,98.20
2018-06-11T14:10:02.212Z,98.60
2018-06-11T14:12:33.764Z,99.60
2018-06-11T14:17:34.844Z,99.90
2018-06-11T14:20:05.437Z,99.90
2018-06-11T14:22:36.542Z,99.90
2018-06-11T14:25:07.025Z,99.90
2018-06-11T14:27:37.664Z,99.90
2018-06-11T14:30:08.284Z,99.90
2018-06-11T14:32:39.168Z,99.90
2018-06-11T14:35:09.958Z,99.90
2018-06-11T14:37:40.502Z,99.90
2018-06-11T14:40:11.236Z,99.90
2018-06-11T14:42:42.158Z,99.90
2018-06-11T14:45:12.689Z,99.90
2018-06-11T14:50:14.250Z,99.90
2018-06-11T14:52:45.106Z,99.90
2018-06-11T14:55:15.662Z,99.90
2018-06-11T14:57:46.183Z,99.90
2018-06-11T15:00:16.776Z,99.90
2018-06-11T15:02:47.820Z,99.90
2018-06-11T15:05:18.568Z,99.90
2018-06-11T15:07:49.348Z,99.90
2018-06-11T15:10:19.927Z,99.90
2018-06-11T15:12:50.622Z,99.90
2018-06-11T15:15:21.215Z,99.90
2018-06-11T15:17:52.013Z,99.90
2018-06-11T15:20:22.872Z,99.90
2018-06-11T15:22:54.425Z,99.90
2018-06-11T15:25:25.135Z,99.90
2018-06-11T15:27:55.874Z,99.90
2018-06-11T15:30:26.715Z,99.90
2018-06-11T15:32:57.460Z,99.90
2018-06-11T15:35:28.176Z,99.90
2018-06-11T15:37:58.956Z,99.90
2018-06-11T15:40:29.678Z,99.90
2018-06-11T15:43:00.432Z,99.90
2018-06-11T15:45:31.028Z,99.90
2018-06-11T15:48:01.785Z,99.90
2018-06-11T15:50:32.443Z,99.90
2018-06-11T15:53:03.259Z,99.90
2018-06-11T15:55:33.957Z,99.90
2018-06-11T16:00:35.205Z,99.90
2018-06-11T16:03:05.809Z,99.90
2018-06-11T16:05:36.398Z,99.90
2018-06-11T16:08:06.904Z,99.90
2018-06-11T16:10:37.499Z,99.90
2018-06-11T16:13:08.094Z,99.90
2018-06-11T16:15:38.803Z,99.90
2018-06-11T16:18:10.175Z,99.90
2018-06-11T16:20:41.093Z,99.90
2018-06-11T16:23:11.701Z,99.90
2018-06-11T16:25:42.536Z,99.90
2018-06-11T16:28:14.225Z,99.90
2018-06-11T16:30:44.651Z,99.90
2018-06-11T16:33:15.295Z,99.90
2018-06-11T16:35:46.021Z,99.90
2018-06-11T16:38:16.717Z,99.90
2018-06-11T16:40:47.452Z,99.90
2018-06-11T16:43:18.088Z,99.90
2018-06-11T16:45:48.954Z,99.90
2018-06-11T16:48:19.510Z,99.90
2018-06-11T16:50:50.214Z,99.90
2018-06-11T16:53:22.164Z,99.90
2018-06-11T16:55:52.889Z,99.90
2018-06-11T16:58:23.551Z,99.90
2018-06-11T17:00:54.229Z,99.90
2018-06-11T17:03:24.931Z,99.90
2018-06-11T17:05:55.453Z,99.90
2018-06-11T17:08:26.046Z,99.90
2018-06-11T17:10:56.731Z,99.90
2018-06-11T17:13:27.460Z,99.90
2018-06-11T17:15:58.181Z,99.90
2018-06-11T17:18:28.970Z,99.90
2018-06-11T17:20:59.436Z,99.90
2018-06-11T17:26:00.517Z,99.90
2018-06-11T17:28:31.446Z,99.90
2018-06-11T17:31:02.244Z,99.90
2018-06-11T17:33:32.958Z,99.90
2018-06-11T17:36:03.509Z,99.90
2018-06-11T17:41:04.573Z,99.90
2018-06-11T17:43:35.264Z,99.90
2018-06-11T17:46:06.653Z,99.90
2018-06-11T17:48:38.144Z,99.90
2018-06-11T17:51:08.818Z,99.90
2018-06-11T17:53:39.527Z,99.90
2018-06-11T17:56:10.128Z,99.90
2018-06-11T17:58:41.093Z,99.90
2018-06-11T18:01:11.877Z,99.90
2018-06-11T18:03:42.727Z,99.90
2018-06-11T18:06:13.595Z,99.90
2018-06-11T18:11:15.281Z,99.90
2018-06-11T18:13:46.332Z,99.90
2018-06-11T18:16:16.946Z,99.90
2018-06-11T18:18:47.626Z,99.90
2018-06-11T18:21:18.191Z,99.90
2018-06-11T18:23:49.157Z,99.90
2018-06-11T18:26:20.044Z,99.90
2018-06-11T18:28:50.588Z,99.90
2018-06-11T18:31:21.036Z,99.90
2018-06-11T18:33:51.565Z,99.90
2018-06-11T18:36:22.382Z,99.90
2018-06-11T18:38:52.920Z,99.90
2018-06-11T18:41:23.539Z,99.90
2018-06-11T18:43:54.867Z,99.90
2018-06-11T18:46:26.499Z,99.90
2018-06-11T18:48:58.158Z,99.90
2018-06-11T18:54:00.710Z,99.90
2018-06-11T18:56:31.521Z,99.90
2018-06-11T19:01:32.412Z,99.90
2018-06-11T19:04:03.748Z,99.90
2018-06-11T19:06:34.547Z,99.90
2018-06-11T19:09:07.789Z,99.90
2018-06-11T19:11:38.636Z,99.90
2018-06-11T19:14:09.340Z,99.90
2018-06-11T19:16:40.126Z,99.90
2018-06-11T19:19:10.792Z,99.90
2018-06-11T19:21:41.745Z,99.90
2018-06-11T19:24:13.212Z,99.90
2018-06-11T19:26:44.020Z,99.90
2018-06-11T19:29:15.040Z,99.90
2018-06-11T19:31:45.890Z,99.90
2018-06-11T19:36:47.102Z,99.90
2018-06-11T19:39:17.880Z,99.90
2018-06-11T19:41:48.515Z,99.90
2018-06-11T19:44:19.297Z,99.90
2018-06-11T19:46:50.016Z,99.90
2018-06-11T19:49:20.655Z,99.90
2018-06-11T19:51:51.396Z,99.90
2018-06-11T19:54:24.105Z,99.90
2018-06-11T19:56:55.069Z,99.90
2018-06-11T19:59:25.890Z,99.90
2018-06-11T20:01:56.689Z,99.90
2018-06-11T20:04:27.656Z,99.90
2018-06-11T20:06:58.603Z,99.90
2018-06-11T20:09:29.152Z,99.90
2018-06-11T20:11:59.944Z,99.90
2018-06-11T20:14:31.398Z,99.90
2018-06-11T20:17:02.129Z,99.90
2018-06-11T20:19:32.717Z,99.90
2018-06-11T20:22:03.552Z,99.90
2018-06-11T20:24:34.213Z,99.90
2018-06-11T20:27:05.058Z,99.90
2018-06-11T20:29:36.198Z,99.90
2018-06-11T20:32:06.919Z,99.90
2018-06-11T20:34:37.677Z,99.90
2018-06-11T20:39:39.022Z,99.90
2018-06-11T20:42:09.712Z,99.90
2018-06-11T20:44:40.498Z,99.90
2018-06-11T20:47:11.438Z,99.90
2018-06-11T20:49:42.454Z,99.90
2018-06-11T20:52:13.095Z,99.90
2018-06-11T20:54:43.998Z,99.90
2018-06-11T20:57:14.880Z,99.90
2018-06-11T20:59:48.838Z,99.90
2018-06-11T21:04:51.183Z,99.90
2018-06-11T21:07:21.757Z,99.90
2018-06-11T21:09:53.092Z,99.90
2018-06-11T21:12:25.284Z,99.90
2018-06-11T21:14:55.980Z,99.90
2018-06-11T21:17:27.078Z,99.90
2018-06-11T21:20:01.083Z,99.90
2018-06-11T21:22:32.022Z,99.90
2018-06-11T21:27:33.088Z,99.90
2018-06-11T21:30:03.911Z,99.90
2018-06-11T21:32:35.072Z,99.90
2018-06-11T21:35:05.861Z,99.90
2018-06-11T21:37:36.904Z,99.90
2018-06-11T21:40:08.044Z,99.90
2018-06-11T21:45:09.862Z,99.90
2018-06-11T21:47:40.451Z,99.90
2018-06-11T21:50:11.062Z,99.90
2018-06-11T21:52:41.777Z,99.90
2018-06-11T21:55:12.488Z,99.90
2018-06-11T21:57:43.895Z,99.90
2018-06-11T22:00:14.568Z,99.90
2018-06-11T22:02:45.310Z,99.90
2018-06-11T22:05:16.146Z,99.90
2018-06-11T22:07:46.934Z,99.90
2018-06-11T22:10:17.749Z,99.90
2018-06-11T22:12:48.517Z,99.90
2018-06-11T22:17:49.907Z,99.90
2018-06-11T22:20:21.096Z,99.90
2018-06-11T22:22:51.831Z,99.90
2018-06-11T22:25:22.413Z,99.90
2018-06-11T22:27:53.394Z,99.90
2018-06-11T22:30:24.134Z,99.90
2018-06-11T22:32:54.832Z,99.90
2018-06-11T22:35:25.825Z,99.90
2018-06-11T22:37:56.501Z,99.90
2018-06-11T22:40:27.272Z,99.90
2018-06-11T22:42:57.869Z,99.90
2018-06-11T22:45:28.589Z,99.90
2018-06-11T22:47:59.300Z,99.90
2018-06-11T22:50:29.818Z,99.90
2018-06-11T22:53:00.586Z,99.90
2018-06-11T22:55:31.049Z,99.90
2018-06-11T22:58:01.757Z,99.90
2018-06-11T23:00:35.140Z,99.90
2018-06-11T23:03:05.832Z,99.90
2018-06-11T23:05:36.445Z,99.90
2018-06-11T23:08:07.196Z,99.90
2018-06-11T23:10:37.846Z,99.90
2018-06-11T23:13:08.562Z,99.90
2018-06-11T23:15:39.253Z,99.90
2018-06-11T23:18:09.794Z,99.90
2018-06-11T23:20:40.333Z,99.90
2018-06-11T23:23:10.880Z,99.90
2018-06-11T23:25:41.976Z,99.90
2018-06-11T23:30:42.817Z,99.90
2018-06-11T23:33:13.485Z,99.90
2018-06-11T23:35:44.228Z,99.90
2018-06-11T23:38:14.839Z,99.90
2018-06-11T23:40:45.541Z,99.90
2018-06-11T23:43:16.148Z,99.90
2018-06-11T23:45:46.720Z,99.90
2018-06-11T23:48:17.289Z,99.90
2018-06-11T23:50:47.900Z,99.90
2018-06-11T23:53:18.681Z,99.90
2018-06-11T23:55:49.240Z,99.90
2018-06-11T23:58:19.898Z,99.90
